sensor_id;sensor_type;location;lat;lon;timestamp;temperature;humidity
38726;DHT22;24474;48.906;8.808;2022-12-11T00:01:36;-0.40;99.90
38726;DHT22;24474;48.906;8.808;2022-12-11T00:04:03;-0.40;99.90
38726;DHT22;24474;48.906;8.808;2022-12-11T00:06:28;-0.40;99.90
38726;DHT22;24474;48.906;8.808;2022-12-11T00:08:54;-0.40;99.90
38726;DHT22;24474;48.906;8.808;2022-12-11T00:11:20;-0.40;99.90
38726;DHT22;24474;48.906;8.808;2022-12-11T00:13:46;-0.40;99.90
38726;DHT22;24474;48.906;8.808;2022-12-11T00:16:13;-0.40;99.90
38726;DHT22;24474;48.906;8.808;2022-12-11T00:18:39;-0.50;99.90
38726;DHT22;24474;48.906;8.808;2022-12-11T00:21:07;-0.50;99.90
38726;DHT22;24474;48.906;8.808;2022-12-11T00:23:35;-0.50;99.90
38726;DHT22;24474;48.906;8.808;2022-12-11T00:26:04;-0.50;99.90
38726;DHT22;24474;48.906;8.808;2022-12-11T00:28:30;-0.60;99.90
38726;DHT22;24474;48.906;8.808;2022-12-11T00:30:57;-0.60;99.90
38726;DHT22;24474;48.906;8.808;2022-12-11T00:33:24;-0.60;99.90
38726;DHT22;24474;48.906;8.808;2022-12-11T00:35:50;-0.60;99.90
38726;DHT22;24474;48.906;8.808;2022-12-11T00:38:17;-0.60;99.90
38726;DHT22;24474;48.906;8.808;2022-12-11T00:40:43;-0.60;99.90
38726;DHT22;24474;48.906;8.808;2022-12-11T00:43:09;-0.70;99.90
38726;DHT22;24474;48.906;8.808;2022-12-11T00:45:37;-0.60;99.90
38726;DHT22;24474;48.906;8.808;2022-12-11T00:48:03;-0.60;99.90
38726;DHT22;24474;48.906;8.808;2022-12-11T00:50:29;-0.60;99.90
38726;DHT22;24474;48.906;8.808;2022-12-11T00:52:55;-0.60;99.90
38726;DHT22;24474;48.906;8.808;2022-12-11T00:55:21;-0.50;99.90
38726;DHT22;24474;48.906;8.808;2022-12-11T00:57:50;-0.60;99.90
38726;DHT22;24474;48.906;8.808;2022-12-11T01:00:17;-0.60;99.90
38726;DHT22;24474;48.906;8.808;2022-12-11T01:05:54;-0.50;99.90
38726;DHT22;24474;48.906;8.808;2022-12-11T01:08:21;-0.60;99.90
38726;DHT22;24474;48.906;8.808;2022-12-11T01:10:47;-0.60;99.90
38726;DHT22;24474;48.906;8.808;2022-12-11T01:13:12;-0.60;99.90
38726;DHT22;24474;48.906;8.808;2022-12-11T01:15:40;-0.60;99.90
38726;DHT22;24474;48.906;8.808;2022-12-11T01:18:08;-0.60;99.90
38726;DHT22;24474;48.906;8.808;2022-12-11T01:20:35;-0.70;99.90
38726;DHT22;24474;48.906;8.808;2022-12-11T01:23:01;-0.70;99.90
38726;DHT22;24474;48.906;8.808;2022-12-11T01:25:27;-0.70;99.90
38726;DHT22;24474;48.906;8.808;2022-12-11T01:27:54;-0.70;99.90
38726;DHT22;24474;48.906;8.808;2022-12-11T01:30:21;-0.70;99.90
38726;DHT22;24474;48.906;8.808;2022-12-11T01:32:48;-0.80;99.90
38726;DHT22;24474;48.906;8.808;2022-12-11T01:35:14;-0.80;99.90
38726;DHT22;24474;48.906;8.808;2022-12-11T01:37:41;-0.80;99.90
38726;DHT22;24474;48.906;8.808;2022-12-11T01:40:07;-0.80;99.90
38726;DHT22;24474;48.906;8.808;2022-12-11T01:42:33;-0.90;99.90
38726;DHT22;24474;48.906;8.808;2022-12-11T01:45:15;-0.80;99.90
38726;DHT22;24474;48.906;8.808;2022-12-11T01:47:44;-0.90;99.90
38726;DHT22;24474;48.906;8.808;2022-12-11T01:50:11;-0.90;99.90
38726;DHT22;24474;48.906;8.808;2022-12-11T01:52:37;-0.80;99.90
38726;DHT22;24474;48.906;8.808;2022-12-11T01:55:03;-0.90;99.90
38726;DHT22;24474;48.906;8.808;2022-12-11T01:57:29;-0.90;99.90
38726;DHT22;24474;48.906;8.808;2022-12-11T02:02:40;-1.00;99.90
38726;DHT22;24474;48.906;8.808;2022-12-11T02:05:06;-1.00;99.90
38726;DHT22;24474;48.906;8.808;2022-12-11T02:07:36;-1.10;99.90
38726;DHT22;24474;48.906;8.808;2022-12-11T02:10:02;-1.10;99.90
38726;DHT22;24474;48.906;8.808;2022-12-11T02:12:36;-1.10;99.90
38726;DHT22;24474;48.906;8.808;2022-12-11T02:20:31;-1.10;99.90
38726;DHT22;24474;48.906;8.808;2022-12-11T02:28:24;-1.20;99.90
38726;DHT22;24474;48.906;8.808;2022-12-11T02:30:54;-1.20;99.90
38726;DHT22;24474;48.906;8.808;2022-12-11T02:33:24;-1.20;99.90
38726;DHT22;24474;48.906;8.808;2022-12-11T02:35:51;-1.20;99.90
38726;DHT22;24474;48.906;8.808;2022-12-11T02:38:20;-1.30;99.90
38726;DHT22;24474;48.906;8.808;2022-12-11T02:40:47;-1.30;99.90
38726;DHT22;24474;48.906;8.808;2022-12-11T02:43:15;-1.30;99.90
38726;DHT22;24474;48.906;8.808;2022-12-11T02:45:42;-1.30;99.90
38726;DHT22;24474;48.906;8.808;2022-12-11T02:48:09;-1.30;99.90
38726;DHT22;24474;48.906;8.808;2022-12-11T02:50:38;-1.30;99.90
38726;DHT22;24474;48.906;8.808;2022-12-11T02:53:07;-1.30;99.90
38726;DHT22;24474;48.906;8.808;2022-12-11T02:55:35;-1.30;99.90
38726;DHT22;24474;48.906;8.808;2022-12-11T02:58:08;-1.30;99.90
38726;DHT22;24474;48.906;8.808;2022-12-11T03:00:37;-1.20;99.90
38726;DHT22;24474;48.906;8.808;2022-12-11T03:03:04;-1.30;99.90
38726;DHT22;24474;48.906;8.808;2022-12-11T03:05:31;-1.20;99.90
38726;DHT22;24474;48.906;8.808;2022-12-11T03:07:58;-1.20;99.90
38726;DHT22;24474;48.906;8.808;2022-12-11T03:10:23;-1.20;99.90
38726;DHT22;24474;48.906;8.808;2022-12-11T03:12:51;-1.20;99.90
38726;DHT22;24474;48.906;8.808;2022-12-11T03:15:18;-1.20;99.90
38726;DHT22;24474;48.906;8.808;2022-12-11T03:18:03;-1.20;99.90
38726;DHT22;24474;48.906;8.808;2022-12-11T03:20:53;-1.20;99.90
38726;DHT22;24474;48.906;8.808;2022-12-11T03:26:04;-1.20;99.90
38726;DHT22;24474;48.906;8.808;2022-12-11T03:31:01;-1.10;99.90
38726;DHT22;24474;48.906;8.808;2022-12-11T03:33:41;-1.10;99.90
38726;DHT22;24474;48.906;8.808;2022-12-11T03:36:10;-1.10;99.90
38726;DHT22;24474;48.906;8.808;2022-12-11T03:38:40;-1.10;99.90
38726;DHT22;24474;48.906;8.808;2022-12-11T03:41:08;-1.20;99.90
38726;DHT22;24474;48.906;8.808;2022-12-11T03:43:34;-1.20;99.90
38726;DHT22;24474;48.906;8.808;2022-12-11T03:46:01;-1.20;99.90
38726;DHT22;24474;48.906;8.808;2022-12-11T03:48:29;-1.20;99.90
38726;DHT22;24474;48.906;8.808;2022-12-11T03:50:57;-1.20;99.90
38726;DHT22;24474;48.906;8.808;2022-12-11T03:53:24;-1.20;99.90
38726;DHT22;24474;48.906;8.808;2022-12-11T03:55:50;-1.20;99.90
38726;DHT22;24474;48.906;8.808;2022-12-11T03:58:16;-1.10;99.90
38726;DHT22;24474;48.906;8.808;2022-12-11T04:00:42;-1.20;99.90
38726;DHT22;24474;48.906;8.808;2022-12-11T04:03:10;-1.20;99.90
38726;DHT22;24474;48.906;8.808;2022-12-11T04:05:40;-1.20;99.90
38726;DHT22;24474;48.906;8.808;2022-12-11T04:08:06;-1.20;99.90
38726;DHT22;24474;48.906;8.808;2022-12-11T04:10:31;-1.20;99.90
38726;DHT22;24474;48.906;8.808;2022-12-11T04:12:57;-1.20;99.90
38726;DHT22;24474;48.906;8.808;2022-12-11T04:15:24;-1.20;99.90
38726;DHT22;24474;48.906;8.808;2022-12-11T04:17:50;-1.20;99.90
38726;DHT22;24474;48.906;8.808;2022-12-11T04:20:34;-1.30;99.90
38726;DHT22;24474;48.906;8.808;2022-12-11T04:23:20;-1.20;99.90
38726;DHT22;24474;48.906;8.808;2022-12-11T04:26:08;-1.20;99.90
38726;DHT22;24474;48.906;8.808;2022-12-11T04:28:34;-1.30;99.90
38726;DHT22;24474;48.906;8.808;2022-12-11T04:30:59;-1.20;99.90
38726;DHT22;24474;48.906;8.808;2022-12-11T04:33:26;-1.30;99.90
38726;DHT22;24474;48.906;8.808;2022-12-11T04:35:52;-1.20;99.90
38726;DHT22;24474;48.906;8.808;2022-12-11T04:38:17;-1.20;99.90
38726;DHT22;24474;48.906;8.808;2022-12-11T04:40:43;-1.20;99.90
38726;DHT22;24474;48.906;8.808;2022-12-11T04:43:09;-1.20;99.90
38726;DHT22;24474;48.906;8.808;2022-12-11T04:45:34;-1.20;99.90
38726;DHT22;24474;48.906;8.808;2022-12-11T04:48:00;-1.30;99.90
38726;DHT22;24474;48.906;8.808;2022-12-11T04:50:25;-1.20;99.90
38726;DHT22;24474;48.906;8.808;2022-12-11T04:52:54;-1.20;99.90
38726;DHT22;24474;48.906;8.808;2022-12-11T04:55:19;-1.30;99.90
38726;DHT22;24474;48.906;8.808;2022-12-11T04:57:45;-1.30;99.90
38726;DHT22;24474;48.906;8.808;2022-12-11T05:00:11;-1.20;99.90
38726;DHT22;24474;48.906;8.808;2022-12-11T05:02:37;-1.30;99.90
38726;DHT22;24474;48.906;8.808;2022-12-11T05:05:04;-1.30;99.90
38726;DHT22;24474;48.906;8.808;2022-12-11T05:07:30;-1.30;99.90
38726;DHT22;24474;48.906;8.808;2022-12-11T05:09:57;-1.30;99.90
38726;DHT22;24474;48.906;8.808;2022-12-11T05:12:24;-1.20;99.90
38726;DHT22;24474;48.906;8.808;2022-12-11T05:14:53;-1.20;99.90
38726;DHT22;24474;48.906;8.808;2022-12-11T05:17:19;-1.20;99.90
38726;DHT22;24474;48.906;8.808;2022-12-11T05:19:50;-1.20;99.90
38726;DHT22;24474;48.906;8.808;2022-12-11T05:22:17;-1.20;99.90
38726;DHT22;24474;48.906;8.808;2022-12-11T05:24:44;-1.20;99.90
38726;DHT22;24474;48.906;8.808;2022-12-11T05:27:10;-1.20;99.90
38726;DHT22;24474;48.906;8.808;2022-12-11T05:29:36;-1.20;99.90
38726;DHT22;24474;48.906;8.808;2022-12-11T05:32:03;-1.20;99.90
38726;DHT22;24474;48.906;8.808;2022-12-11T05:34:29;-1.30;99.90
38726;DHT22;24474;48.906;8.808;2022-12-11T05:36:54;-1.30;99.90
38726;DHT22;24474;48.906;8.808;2022-12-11T05:39:20;-1.30;99.90
38726;DHT22;24474;48.906;8.808;2022-12-11T05:41:45;-1.30;99.90
38726;DHT22;24474;48.906;8.808;2022-12-11T05:44:11;-1.30;99.90
38726;DHT22;24474;48.906;8.808;2022-12-11T05:46:38;-1.30;99.90
38726;DHT22;24474;48.906;8.808;2022-12-11T05:49:03;-1.30;99.90
38726;DHT22;24474;48.906;8.808;2022-12-11T05:51:29;-1.30;99.90
38726;DHT22;24474;48.906;8.808;2022-12-11T05:53:57;-1.40;99.90
38726;DHT22;24474;48.906;8.808;2022-12-11T05:56:24;-1.40;99.90
38726;DHT22;24474;48.906;8.808;2022-12-11T05:58:51;-1.40;99.90
38726;DHT22;24474;48.906;8.808;2022-12-11T06:01:24;-1.40;99.90
38726;DHT22;24474;48.906;8.808;2022-12-11T06:03:52;-1.40;99.90
38726;DHT22;24474;48.906;8.808;2022-12-11T06:06:19;-1.40;99.90
38726;DHT22;24474;48.906;8.808;2022-12-11T06:08:44;-1.40;99.90
38726;DHT22;24474;48.906;8.808;2022-12-11T06:11:12;-1.40;99.90
38726;DHT22;24474;48.906;8.808;2022-12-11T06:13:38;-1.40;99.90
38726;DHT22;24474;48.906;8.808;2022-12-11T06:16:07;-1.40;99.90
38726;DHT22;24474;48.906;8.808;2022-12-11T06:18:37;-1.40;99.90
38726;DHT22;24474;48.906;8.808;2022-12-11T06:21:36;-1.30;99.90
38726;DHT22;24474;48.906;8.808;2022-12-11T06:23:55;-1.30;99.90
38726;DHT22;24474;48.906;8.808;2022-12-11T06:26:21;-1.40;99.90
38726;DHT22;24474;48.906;8.808;2022-12-11T06:28:47;-1.30;99.90
38726;DHT22;24474;48.906;8.808;2022-12-11T06:31:13;-1.30;99.90
38726;DHT22;24474;48.906;8.808;2022-12-11T06:33:39;-1.30;99.90
38726;DHT22;24474;48.906;8.808;2022-12-11T06:36:06;-1.30;99.90
38726;DHT22;24474;48.906;8.808;2022-12-11T06:38:33;-1.30;99.90
38726;DHT22;24474;48.906;8.808;2022-12-11T06:41:00;-1.30;99.90
38726;DHT22;24474;48.906;8.808;2022-12-11T06:43:31;-1.30;99.90
38726;DHT22;24474;48.906;8.808;2022-12-11T06:45:58;-1.30;99.90
38726;DHT22;24474;48.906;8.808;2022-12-11T06:48:25;-1.30;99.90
38726;DHT22;24474;48.906;8.808;2022-12-11T06:50:52;-1.30;99.90
38726;DHT22;24474;48.906;8.808;2022-12-11T06:53:17;-1.40;99.90
38726;DHT22;24474;48.906;8.808;2022-12-11T06:55:43;-1.40;99.90
38726;DHT22;24474;48.906;8.808;2022-12-11T06:58:09;-1.30;99.90
38726;DHT22;24474;48.906;8.808;2022-12-11T07:00:35;-1.30;99.90
38726;DHT22;24474;48.906;8.808;2022-12-11T07:03:00;-1.30;99.90
38726;DHT22;24474;48.906;8.808;2022-12-11T07:05:26;-1.30;99.90
38726;DHT22;24474;48.906;8.808;2022-12-11T07:07:55;-1.30;99.90
38726;DHT22;24474;48.906;8.808;2022-12-11T07:10:21;-1.30;99.90
38726;DHT22;24474;48.906;8.808;2022-12-11T07:12:47;-1.30;99.90
38726;DHT22;24474;48.906;8.808;2022-12-11T07:15:12;-1.30;99.90
38726;DHT22;24474;48.906;8.808;2022-12-11T07:17:37;-1.30;99.90
38726;DHT22;24474;48.906;8.808;2022-12-11T07:20:03;-1.30;99.90
38726;DHT22;24474;48.906;8.808;2022-12-11T07:22:29;-1.30;99.90
38726;DHT22;24474;48.906;8.808;2022-12-11T07:24:55;-1.30;99.90
38726;DHT22;24474;48.906;8.808;2022-12-11T07:27:21;-1.30;99.90
38726;DHT22;24474;48.906;8.808;2022-12-11T07:29:49;-1.30;99.90
38726;DHT22;24474;48.906;8.808;2022-12-11T07:32:14;-1.30;99.90
38726;DHT22;24474;48.906;8.808;2022-12-11T07:34:41;-1.30;99.90
38726;DHT22;24474;48.906;8.808;2022-12-11T07:37:08;-1.30;99.90
38726;DHT22;24474;48.906;8.808;2022-12-11T07:39:39;-1.30;99.90
38726;DHT22;24474;48.906;8.808;2022-12-11T07:42:04;-1.30;99.90
38726;DHT22;24474;48.906;8.808;2022-12-11T07:44:31;-1.30;99.90
38726;DHT22;24474;48.906;8.808;2022-12-11T07:46:57;-1.40;99.90
38726;DHT22;24474;48.906;8.808;2022-12-11T07:49:24;-1.30;99.90
38726;DHT22;24474;48.906;8.808;2022-12-11T07:51:49;-1.40;99.90
38726;DHT22;24474;48.906;8.808;2022-12-11T07:54:15;-1.40;99.90
38726;DHT22;24474;48.906;8.808;2022-12-11T07:56:42;-1.40;99.90
38726;DHT22;24474;48.906;8.808;2022-12-11T07:59:08;-1.40;99.90
38726;DHT22;24474;48.906;8.808;2022-12-11T08:01:34;-1.40;99.90
38726;DHT22;24474;48.906;8.808;2022-12-11T08:04:01;-1.40;99.90
38726;DHT22;24474;48.906;8.808;2022-12-11T08:06:30;-1.40;99.90
38726;DHT22;24474;48.906;8.808;2022-12-11T08:09:03;-1.40;99.90
38726;DHT22;24474;48.906;8.808;2022-12-11T08:11:29;-1.40;99.90
38726;DHT22;24474;48.906;8.808;2022-12-11T08:13:55;-1.40;99.90
38726;DHT22;24474;48.906;8.808;2022-12-11T08:16:23;-1.40;99.90
38726;DHT22;24474;48.906;8.808;2022-12-11T08:18:49;-1.40;99.90
38726;DHT22;24474;48.906;8.808;2022-12-11T08:21:15;-1.40;99.90
38726;DHT22;24474;48.906;8.808;2022-12-11T08:23:43;-1.40;99.90
38726;DHT22;24474;48.906;8.808;2022-12-11T08:26:10;-1.40;99.90
38726;DHT22;24474;48.906;8.808;2022-12-11T08:28:36;-1.40;99.90
38726;DHT22;24474;48.906;8.808;2022-12-11T08:31:05;-1.40;99.90
38726;DHT22;24474;48.906;8.808;2022-12-11T08:33:34;-1.40;99.90
38726;DHT22;24474;48.906;8.808;2022-12-11T08:36:10;-1.40;99.90
38726;DHT22;24474;48.906;8.808;2022-12-11T08:38:36;-1.40;99.90
38726;DHT22;24474;48.906;8.808;2022-12-11T08:41:12;-1.30;99.90
38726;DHT22;24474;48.906;8.808;2022-12-11T08:43:38;-1.30;99.90
38726;DHT22;24474;48.906;8.808;2022-12-11T08:46:04;-1.30;99.90
38726;DHT22;24474;48.906;8.808;2022-12-11T08:48:30;-1.30;99.90
38726;DHT22;24474;48.906;8.808;2022-12-11T08:50:59;-1.30;99.90
38726;DHT22;24474;48.906;8.808;2022-12-11T08:53:26;-1.30;99.90
38726;DHT22;24474;48.906;8.808;2022-12-11T08:56:07;-1.30;99.90
38726;DHT22;24474;48.906;8.808;2022-12-11T08:58:32;-1.30;99.90
38726;DHT22;24474;48.906;8.808;2022-12-11T09:00:58;-1.30;99.90
38726;DHT22;24474;48.906;8.808;2022-12-11T09:03:25;-1.20;99.90
38726;DHT22;24474;48.906;8.808;2022-12-11T09:05:51;-1.20;99.90
38726;DHT22;24474;48.906;8.808;2022-12-11T09:08:16;-1.20;99.90
38726;DHT22;24474;48.906;8.808;2022-12-11T09:10:43;-1.20;99.90
38726;DHT22;24474;48.906;8.808;2022-12-11T09:13:09;-1.20;99.90
38726;DHT22;24474;48.906;8.808;2022-12-11T09:15:34;-1.20;99.90
38726;DHT22;24474;48.906;8.808;2022-12-11T09:18:00;-1.20;99.90
38726;DHT22;24474;48.906;8.808;2022-12-11T09:20:26;-1.10;99.90
38726;DHT22;24474;48.906;8.808;2022-12-11T09:22:52;-1.20;99.90
38726;DHT22;24474;48.906;8.808;2022-12-11T09:25:17;-1.10;99.90
38726;DHT22;24474;48.906;8.808;2022-12-11T09:27:44;-1.10;99.90
38726;DHT22;24474;48.906;8.808;2022-12-11T09:30:10;-1.00;99.90
38726;DHT22;24474;48.906;8.808;2022-12-11T09:32:35;-1.00;99.90
38726;DHT22;24474;48.906;8.808;2022-12-11T09:35:02;-1.00;99.90
38726;DHT22;24474;48.906;8.808;2022-12-11T09:37:28;-0.90;99.90
38726;DHT22;24474;48.906;8.808;2022-12-11T09:39:55;-0.90;99.90
38726;DHT22;24474;48.906;8.808;2022-12-11T09:42:30;-0.90;99.90
38726;DHT22;24474;48.906;8.808;2022-12-11T09:44:57;-0.80;99.90
38726;DHT22;24474;48.906;8.808;2022-12-11T09:47:35;-0.70;99.90
38726;DHT22;24474;48.906;8.808;2022-12-11T09:52:37;-0.60;99.90
38726;DHT22;24474;48.906;8.808;2022-12-11T09:55:15;-0.60;99.90
38726;DHT22;24474;48.906;8.808;2022-12-11T10:01:00;-0.50;99.90
38726;DHT22;24474;48.906;8.808;2022-12-11T10:16:44;-0.30;99.90
38726;DHT22;24474;48.906;8.808;2022-12-11T10:19:16;-0.30;99.90
38726;DHT22;24474;48.906;8.808;2022-12-11T10:21:44;-0.30;99.90
38726;DHT22;24474;48.906;8.808;2022-12-11T10:24:11;-0.20;99.90
38726;DHT22;24474;48.906;8.808;2022-12-11T10:26:41;-0.10;99.90
38726;DHT22;24474;48.906;8.808;2022-12-11T10:29:10;-0.10;99.90
38726;DHT22;24474;48.906;8.808;2022-12-11T10:31:39;-0.10;99.90
38726;DHT22;24474;48.906;8.808;2022-12-11T10:34:14;-0.10;99.90
38726;DHT22;24474;48.906;8.808;2022-12-11T10:36:44;-0.10;99.90
38726;DHT22;24474;48.906;8.808;2022-12-11T10:39:15;-0.10;99.90
38726;DHT22;24474;48.906;8.808;2022-12-11T10:41:44;0.00;99.90
38726;DHT22;24474;48.906;8.808;2022-12-11T10:44:29;0.00;99.90
38726;DHT22;24474;48.906;8.808;2022-12-11T10:47:04;0.00;99.90
38726;DHT22;24474;48.906;8.808;2022-12-11T10:49:33;0.00;99.90
38726;DHT22;24474;48.906;8.808;2022-12-11T10:51:58;0.10;99.90
38726;DHT22;24474;48.906;8.808;2022-12-11T10:54:28;0.10;99.90
38726;DHT22;24474;48.906;8.808;2022-12-11T10:56:55;0.10;99.90
38726;DHT22;24474;48.906;8.808;2022-12-11T10:59:21;0.10;99.90
38726;DHT22;24474;48.906;8.808;2022-12-11T11:01:48;0.10;99.90
38726;DHT22;24474;48.906;8.808;2022-12-11T11:04:20;0.20;99.90
38726;DHT22;24474;48.906;8.808;2022-12-11T11:06:48;0.20;99.90
38726;DHT22;24474;48.906;8.808;2022-12-11T11:09:34;0.20;99.90
38726;DHT22;24474;48.906;8.808;2022-12-11T11:12:02;0.30;99.90
38726;DHT22;24474;48.906;8.808;2022-12-11T11:14:29;0.30;99.90
38726;DHT22;24474;48.906;8.808;2022-12-11T11:16:56;0.30;99.90
38726;DHT22;24474;48.906;8.808;2022-12-11T11:21:49;0.30;99.90
38726;DHT22;24474;48.906;8.808;2022-12-11T11:24:29;0.30;99.90
38726;DHT22;24474;48.906;8.808;2022-12-11T11:26:56;0.40;99.90
38726;DHT22;24474;48.906;8.808;2022-12-11T11:29:28;0.40;99.90
38726;DHT22;24474;48.906;8.808;2022-12-11T11:31:54;0.40;99.90
38726;DHT22;24474;48.906;8.808;2022-12-11T11:34:19;0.50;99.90
38726;DHT22;24474;48.906;8.808;2022-12-11T11:36:57;0.50;99.90
38726;DHT22;24474;48.906;8.808;2022-12-11T11:39:27;0.50;99.90
38726;DHT22;24474;48.906;8.808;2022-12-11T11:44:46;0.50;99.90
38726;DHT22;24474;48.906;8.808;2022-12-11T11:47:22;0.50;99.90
38726;DHT22;24474;48.906;8.808;2022-12-11T11:49:54;0.50;99.90
38726;DHT22;24474;48.906;8.808;2022-12-11T11:52:35;0.60;99.90
38726;DHT22;24474;48.906;8.808;2022-12-11T11:55:07;0.50;99.90
38726;DHT22;24474;48.906;8.808;2022-12-11T11:57:36;0.60;99.90
38726;DHT22;24474;48.906;8.808;2022-12-11T12:00:16;0.60;99.90
38726;DHT22;24474;48.906;8.808;2022-12-11T12:02:42;0.50;99.90
38726;DHT22;24474;48.906;8.808;2022-12-11T12:05:11;0.50;99.90
38726;DHT22;24474;48.906;8.808;2022-12-11T12:07:40;0.60;99.90
38726;DHT22;24474;48.906;8.808;2022-12-11T12:10:18;0.60;99.90
38726;DHT22;24474;48.906;8.808;2022-12-11T12:12:52;0.70;99.90
38726;DHT22;24474;48.906;8.808;2022-12-11T12:18:23;0.60;99.90
38726;DHT22;24474;48.906;8.808;2022-12-11T12:20:54;0.60;99.90
38726;DHT22;24474;48.906;8.808;2022-12-11T12:26:02;0.60;99.90
38726;DHT22;24474;48.906;8.808;2022-12-11T12:36:30;0.70;99.90
38726;DHT22;24474;48.906;8.808;2022-12-11T12:39:10;0.80;99.90
38726;DHT22;24474;48.906;8.808;2022-12-11T12:51:51;0.70;99.90
38726;DHT22;24474;48.906;8.808;2022-12-11T12:54:17;0.70;99.90
38726;DHT22;24474;48.906;8.808;2022-12-11T12:56:43;0.70;99.90
38726;DHT22;24474;48.906;8.808;2022-12-11T12:59:22;0.70;99.90
38726;DHT22;24474;48.906;8.808;2022-12-11T13:02:05;0.70;99.90
38726;DHT22;24474;48.906;8.808;2022-12-11T13:04:42;0.70;99.90
38726;DHT22;24474;48.906;8.808;2022-12-11T13:07:21;0.80;99.90
38726;DHT22;24474;48.906;8.808;2022-12-11T13:10:21;0.70;99.90
38726;DHT22;24474;48.906;8.808;2022-12-11T13:12:50;0.70;99.90
38726;DHT22;24474;48.906;8.808;2022-12-11T13:20:56;0.70;99.90
38726;DHT22;24474;48.906;8.808;2022-12-11T13:23:26;0.70;99.90
38726;DHT22;24474;48.906;8.808;2022-12-11T13:25:54;0.80;99.90
38726;DHT22;24474;48.906;8.808;2022-12-11T13:33:44;0.80;99.90
38726;DHT22;24474;48.906;8.808;2022-12-11T13:38:36;0.80;99.90
38726;DHT22;24474;48.906;8.808;2022-12-11T13:41:02;0.80;99.90
38726;DHT22;24474;48.906;8.808;2022-12-11T13:43:30;0.80;99.90
38726;DHT22;24474;48.906;8.808;2022-12-11T13:45:59;0.70;99.90
38726;DHT22;24474;48.906;8.808;2022-12-11T13:48:50;0.70;99.90
38726;DHT22;24474;48.906;8.808;2022-12-11T13:51:16;0.80;99.90
38726;DHT22;24474;48.906;8.808;2022-12-11T13:53:43;0.70;99.90
38726;DHT22;24474;48.906;8.808;2022-12-11T13:56:15;0.70;99.90
38726;DHT22;24474;48.906;8.808;2022-12-11T13:58:42;0.70;99.90
38726;DHT22;24474;48.906;8.808;2022-12-11T14:01:16;0.70;99.90
38726;DHT22;24474;48.906;8.808;2022-12-11T14:03:50;0.70;99.90
38726;DHT22;24474;48.906;8.808;2022-12-11T14:06:17;0.80;99.90
38726;DHT22;24474;48.906;8.808;2022-12-11T14:08:43;0.70;99.90
38726;DHT22;24474;48.906;8.808;2022-12-11T14:11:16;0.70;99.90
38726;DHT22;24474;48.906;8.808;2022-12-11T14:13:44;0.70;99.90
38726;DHT22;24474;48.906;8.808;2022-12-11T14:16:13;0.70;99.90
38726;DHT22;24474;48.906;8.808;2022-12-11T14:18:43;0.70;99.90
38726;DHT22;24474;48.906;8.808;2022-12-11T14:21:20;0.70;99.90
38726;DHT22;24474;48.906;8.808;2022-12-11T14:23:51;0.70;99.90
38726;DHT22;24474;48.906;8.808;2022-12-11T14:26:19;0.70;99.90
38726;DHT22;24474;48.906;8.808;2022-12-11T14:28:45;0.60;99.90
38726;DHT22;24474;48.906;8.808;2022-12-11T14:31:14;0.60;99.90
38726;DHT22;24474;48.906;8.808;2022-12-11T14:33:42;0.60;99.90
38726;DHT22;24474;48.906;8.808;2022-12-11T14:36:09;0.60;99.90
38726;DHT22;24474;48.906;8.808;2022-12-11T14:38:36;0.60;99.90
38726;DHT22;24474;48.906;8.808;2022-12-11T14:41:04;0.60;99.90
38726;DHT22;24474;48.906;8.808;2022-12-11T14:43:35;0.60;99.90
38726;DHT22;24474;48.906;8.808;2022-12-11T14:46:03;0.50;99.90
38726;DHT22;24474;48.906;8.808;2022-12-11T14:48:43;0.50;99.90
38726;DHT22;24474;48.906;8.808;2022-12-11T14:51:14;0.50;99.90
38726;DHT22;24474;48.906;8.808;2022-12-11T14:53:43;0.50;99.90
38726;DHT22;24474;48.906;8.808;2022-12-11T14:56:20;0.50;99.90
38726;DHT22;24474;48.906;8.808;2022-12-11T14:59:00;0.50;99.90
38726;DHT22;24474;48.906;8.808;2022-12-11T15:01:28;0.50;99.90
38726;DHT22;24474;48.906;8.808;2022-12-11T15:06:34;0.50;99.90
38726;DHT22;24474;48.906;8.808;2022-12-11T15:09:37;0.40;99.90
38726;DHT22;24474;48.906;8.808;2022-12-11T15:11:59;0.40;99.90
38726;DHT22;24474;48.906;8.808;2022-12-11T15:14:32;0.40;99.90
38726;DHT22;24474;48.906;8.808;2022-12-11T15:16:59;0.40;99.90
38726;DHT22;24474;48.906;8.808;2022-12-11T15:19:29;0.40;99.90
38726;DHT22;24474;48.906;8.808;2022-12-11T15:22:05;0.40;99.90
38726;DHT22;24474;48.906;8.808;2022-12-11T15:24:41;0.30;99.90
38726;DHT22;24474;48.906;8.808;2022-12-11T15:29:52;0.30;99.90
38726;DHT22;24474;48.906;8.808;2022-12-11T15:32:19;0.20;99.90
38726;DHT22;24474;48.906;8.808;2022-12-11T15:34:47;0.20;99.90
38726;DHT22;24474;48.906;8.808;2022-12-11T15:37:27;0.20;99.90
38726;DHT22;24474;48.906;8.808;2022-12-11T15:39:55;0.20;99.90
38726;DHT22;24474;48.906;8.808;2022-12-11T15:42:34;0.20;99.90
38726;DHT22;24474;48.906;8.808;2022-12-11T15:45:02;0.20;99.90
38726;DHT22;24474;48.906;8.808;2022-12-11T15:47:31;0.10;99.90
38726;DHT22;24474;48.906;8.808;2022-12-11T15:50:11;0.10;99.90
38726;DHT22;24474;48.906;8.808;2022-12-11T15:52:41;0.10;99.90
38726;DHT22;24474;48.906;8.808;2022-12-11T15:55:07;0.20;99.90
38726;DHT22;24474;48.906;8.808;2022-12-11T15:57:32;0.20;99.90
38726;DHT22;24474;48.906;8.808;2022-12-11T15:59:58;0.20;99.90
38726;DHT22;24474;48.906;8.808;2022-12-11T16:02:24;0.20;99.90
38726;DHT22;24474;48.906;8.808;2022-12-11T16:04:53;0.20;99.90
38726;DHT22;24474;48.906;8.808;2022-12-11T16:07:21;0.20;99.90
38726;DHT22;24474;48.906;8.808;2022-12-11T16:09:46;0.20;99.90
38726;DHT22;24474;48.906;8.808;2022-12-11T16:12:12;0.10;99.90
38726;DHT22;24474;48.906;8.808;2022-12-11T16:14:42;0.10;99.90
38726;DHT22;24474;48.906;8.808;2022-12-11T16:17:09;0.10;99.90
38726;DHT22;24474;48.906;8.808;2022-12-11T16:19:35;0.10;99.90
38726;DHT22;24474;48.906;8.808;2022-12-11T16:22:02;0.10;99.90
38726;DHT22;24474;48.906;8.808;2022-12-11T16:24:28;0.10;99.90
38726;DHT22;24474;48.906;8.808;2022-12-11T16:26:54;0.10;99.90
38726;DHT22;24474;48.906;8.808;2022-12-11T16:29:20;0.10;99.90
38726;DHT22;24474;48.906;8.808;2022-12-11T16:31:46;0.10;99.90
38726;DHT22;24474;48.906;8.808;2022-12-11T16:34:15;0.00;99.90
38726;DHT22;24474;48.906;8.808;2022-12-11T16:36:41;0.10;99.90
38726;DHT22;24474;48.906;8.808;2022-12-11T16:39:09;0.10;99.90
38726;DHT22;24474;48.906;8.808;2022-12-11T16:41:35;0.10;99.90
38726;DHT22;24474;48.906;8.808;2022-12-11T16:44:01;0.10;99.90
38726;DHT22;24474;48.906;8.808;2022-12-11T16:46:30;0.10;99.90
38726;DHT22;24474;48.906;8.808;2022-12-11T16:48:55;0.00;99.90
38726;DHT22;24474;48.906;8.808;2022-12-11T16:51:21;0.00;99.90
38726;DHT22;24474;48.906;8.808;2022-12-11T16:53:46;0.00;99.90
38726;DHT22;24474;48.906;8.808;2022-12-11T16:56:13;0.00;99.90
38726;DHT22;24474;48.906;8.808;2022-12-11T16:58:39;0.00;99.90
38726;DHT22;24474;48.906;8.808;2022-12-11T17:01:10;0.00;99.90
38726;DHT22;24474;48.906;8.808;2022-12-11T17:03:37;-0.10;99.90
38726;DHT22;24474;48.906;8.808;2022-12-11T17:06:06;-0.10;99.90
38726;DHT22;24474;48.906;8.808;2022-12-11T17:08:32;-0.10;99.90
38726;DHT22;24474;48.906;8.808;2022-12-11T17:10:57;-0.10;99.90
38726;DHT22;24474;48.906;8.808;2022-12-11T17:13:22;-0.10;99.90